createdAt,value
2023-02-26T00:03:33.842Z,13.80
2023-02-26T00:07:33.925Z,9.00
2023-02-26T00:11:33.931Z,12.10
2023-02-26T00:15:33.924Z,8.90
2023-02-26T00:19:34.104Z,13.30
2023-02-26T00:23:33.901Z,8.40
2023-02-26T00:27:34.738Z,15.50
2023-02-26T00:31:34.167Z,10.90
2023-02-26T00:35:34.515Z,14.90
2023-02-26T00:39:40.142Z,12.60
2023-02-26T00:43:34.711Z,13.80
2023-02-26T00:47:41.931Z,14.90
2023-02-26T00:51:43.660Z,8.90
2023-02-26T00:55:33.794Z,15.40
2023-02-26T00:59:33.807Z,11.10
2023-02-26T01:03:34.250Z,14.90
2023-02-26T01:07:43.532Z,11.60
2023-02-26T01:11:35.936Z,12.10
2023-02-26T01:15:34.686Z,14.50
2023-02-26T01:19:40.741Z,16.20
2023-02-26T01:23:40.414Z,10.60
2023-02-26T01:27:34.045Z,8.60
2023-02-26T01:31:41.349Z,6.90
2023-02-26T01:35:41.297Z,11.10
2023-02-26T01:39:39.759Z,9.80
2023-02-26T01:43:43.545Z,11.60
2023-02-26T01:47:39.517Z,11.60
2023-02-26T01:51:46.123Z,10.10
2023-02-26T01:55:34.319Z,10.10
2023-02-26T02:03:37.434Z,12.40
2023-02-26T02:07:34.110Z,7.70
2023-02-26T02:11:34.853Z,9.50
2023-02-26T02:15:44.527Z,9.30
2023-02-26T02:19:53.800Z,11.90
2023-02-26T02:23:39.136Z,11.90
2023-02-26T02:27:45.052Z,11.80
2023-02-26T02:31:40.226Z,10.90
2023-02-26T02:35:40.838Z,9.60
2023-02-26T02:39:38.438Z,9.60
2023-02-26T02:43:36.740Z,11.00
2023-02-26T02:47:39.540Z,14.00
2023-02-26T02:51:38.665Z,14.00
2023-02-26T02:55:38.637Z,13.80
2023-02-26T03:07:40.972Z,10.10
2023-02-26T03:15:39.851Z,9.00
2023-02-26T03:19:40.106Z,12.00
2023-02-26T03:23:39.444Z,8.00
2023-02-26T03:27:43.592Z,13.90
2023-02-26T03:31:39.693Z,9.80
2023-02-26T03:35:38.867Z,7.00
2023-02-26T03:39:39.526Z,15.80
2023-02-26T03:43:40.558Z,10.60
2023-02-26T03:47:35.643Z,10.60
2023-02-26T03:51:36.194Z,11.70
2023-02-26T03:55:38.268Z,9.50
2023-02-26T03:59:35.041Z,9.50
2023-02-26T04:07:34.538Z,9.30
2023-02-26T04:11:36.377Z,10.70
2023-02-26T04:15:34.610Z,10.70
2023-02-26T04:19:34.309Z,11.90
2023-02-26T04:23:34.540Z,7.40
2023-02-26T04:27:34.352Z,10.30
2023-02-26T04:31:34.634Z,7.40
2023-02-26T04:35:34.448Z,12.00
2023-02-26T04:39:34.363Z,12.40
2023-02-26T04:43:34.599Z,15.70
2023-02-26T04:47:34.627Z,11.70
2023-02-26T04:51:34.472Z,11.70
2023-02-26T04:55:35.351Z,16.00
2023-02-26T04:59:34.468Z,14.00
2023-02-26T05:11:34.698Z,9.40
2023-02-26T05:15:34.723Z,10.60
2023-02-26T05:19:34.599Z,16.50
2023-02-26T05:23:34.603Z,12.20
2023-02-26T05:27:34.572Z,14.70
2023-02-26T05:31:34.869Z,12.30
2023-02-26T05:35:34.564Z,12.40
2023-02-26T05:43:35.012Z,12.10
2023-02-26T05:47:35.334Z,10.80
2023-02-26T05:51:34.623Z,9.90
2023-02-26T05:55:34.630Z,10.40
2023-02-26T05:59:34.814Z,12.60
2023-02-26T06:03:34.613Z,18.80
2023-02-26T06:15:35.086Z,11.60
2023-02-26T06:19:34.755Z,15.20
2023-02-26T06:23:34.905Z,8.30
2023-02-26T06:35:35.030Z,8.10
2023-02-26T06:39:34.676Z,13.00
2023-02-26T06:43:35.116Z,8.40
2023-02-26T06:47:34.950Z,11.60
2023-02-26T06:51:35.874Z,16.10
2023-02-26T06:59:35.015Z,5.20
2023-02-26T07:03:34.894Z,12.00
2023-02-26T07:07:35.035Z,11.00
2023-02-26T07:11:34.794Z,7.60
2023-02-26T07:15:34.779Z,11.90
2023-02-26T07:23:34.848Z,11.10
2023-02-26T07:27:35.268Z,11.30
2023-02-26T07:31:35.987Z,9.70
2023-02-26T07:35:35.271Z,9.30
2023-02-26T07:39:34.962Z,12.00
2023-02-26T07:43:34.845Z,8.60
2023-02-26T07:47:35.469Z,9.10
2023-02-26T07:51:35.812Z,11.80
2023-02-26T07:59:35.054Z,12.40
2023-02-26T08:03:35.068Z,11.80
2023-02-26T08:11:38.711Z,16.20
2023-02-26T08:19:35.276Z,14.10
2023-02-26T08:23:35.010Z,13.50
2023-02-26T08:27:35.400Z,10.30
2023-02-26T08:31:35.208Z,6.40
2023-02-26T08:35:35.120Z,10.00
2023-02-26T08:39:37.344Z,13.00
2023-02-26T08:43:35.816Z,11.90
2023-02-26T08:47:39.396Z,10.00
2023-02-26T08:51:35.123Z,6.50
2023-02-26T08:55:35.148Z,8.40
2023-02-26T08:59:35.201Z,8.30
2023-02-26T09:03:35.847Z,9.10
2023-02-26T09:07:35.172Z,7.50
2023-02-26T09:11:35.869Z,5.80
2023-02-26T09:15:35.195Z,5.50
2023-02-26T09:19:35.226Z,4.50
2023-02-26T09:23:35.787Z,8.20
2023-02-26T09:27:35.420Z,7.90
2023-02-26T09:31:35.480Z,9.40
2023-02-26T09:35:35.585Z,6.50
2023-02-26T09:39:36.035Z,7.40
2023-02-26T09:43:53.115Z,9.00
2023-02-26T09:47:44.622Z,7.10
2023-02-26T09:51:35.539Z,4.80
2023-02-26T09:55:39.070Z,10.00
2023-02-26T09:59:35.734Z,7.10
2023-02-26T10:03:51.960Z,12.70
2023-02-26T10:07:44.242Z,9.30
2023-02-26T10:11:46.071Z,6.90
2023-02-26T10:15:38.529Z,6.90
2023-02-26T10:19:40.869Z,14.10
2023-02-26T10:23:43.412Z,10.30
2023-02-26T10:27:47.130Z,6.10
2023-02-26T10:31:42.009Z,8.30
2023-02-26T10:35:41.781Z,7.70
2023-02-26T10:39:42.833Z,4.70
2023-02-26T10:43:40.481Z,8.20
2023-02-26T10:47:45.495Z,7.00
2023-02-26T10:51:37.764Z,8.40
2023-02-26T10:55:41.937Z,8.10
2023-02-26T10:59:35.431Z,8.30
2023-02-26T11:03:39.374Z,5.00
2023-02-26T11:07:37.169Z,5.10
2023-02-26T11:11:40.801Z,6.20
2023-02-26T11:15:36.116Z,9.20
2023-02-26T11:19:38.451Z,9.70
2023-02-26T11:23:36.686Z,8.20
2023-02-26T11:27:38.251Z,5.20
2023-02-26T11:31:35.693Z,6.20
2023-02-26T11:35:35.764Z,8.10
2023-02-26T11:39:38.213Z,8.30
2023-02-26T11:43:43.316Z,7.00
2023-02-26T11:47:35.737Z,7.40
2023-02-26T11:51:35.481Z,7.10
2023-02-26T11:55:43.648Z,7.00
2023-02-26T12:07:35.815Z,8.00
2023-02-26T12:11:51.363Z,7.80
2023-02-26T12:15:41.928Z,7.20
2023-02-26T12:19:42.609Z,7.80
2023-02-26T12:23:53.790Z,10.30
2023-02-26T12:27:52.427Z,5.80
2023-02-26T12:31:51.956Z,5.50
2023-02-26T12:35:42.660Z,2.70
2023-02-26T12:39:46.989Z,7.20
2023-02-26T12:43:43.834Z,3.90
2023-02-26T12:47:47.668Z,5.90
2023-02-26T12:51:50.453Z,4.90
2023-02-26T12:55:44.438Z,1.90
2023-02-26T12:59:49.599Z,4.70
2023-02-26T13:03:53.384Z,4.40
2023-02-26T13:07:49.918Z,4.00
2023-02-26T13:11:50.808Z,6.20
2023-02-26T13:15:46.802Z,5.40
2023-02-26T13:19:43.757Z,5.50
2023-02-26T13:23:40.172Z,6.90
2023-02-26T13:27:38.464Z,5.40
2023-02-26T13:31:43.447Z,4.00
2023-02-26T13:35:41.059Z,4.50
2023-02-26T13:39:45.249Z,3.20
2023-02-26T13:43:46.571Z,4.40
2023-02-26T13:47:53.997Z,6.00
2023-02-26T13:51:38.683Z,6.40
2023-02-26T13:55:40.969Z,2.60
2023-02-26T14:03:41.328Z,4.40
2023-02-26T14:07:47.417Z,4.10
2023-02-26T14:11:43.505Z,3.50
2023-02-26T14:15:41.123Z,5.80
2023-02-26T14:23:37.457Z,3.30
2023-02-26T14:27:38.001Z,2.30
2023-02-26T14:31:50.694Z,2.90
2023-02-26T14:35:41.402Z,3.50
2023-02-26T14:39:40.055Z,6.10
2023-02-26T14:43:39.477Z,3.40
2023-02-26T14:47:37.055Z,4.20
2023-02-26T14:51:48.879Z,3.30
2023-02-26T14:55:51.262Z,2.40
2023-02-26T14:59:50.490Z,3.90
2023-02-26T15:03:54.821Z,4.60
2023-02-26T15:07:47.651Z,3.70
2023-02-26T15:11:50.211Z,3.00
2023-02-26T15:15:44.630Z,2.70
2023-02-26T15:19:55.232Z,2.40
2023-02-26T15:23:40.422Z,4.60
2023-02-26T15:27:36.331Z,2.10
2023-02-26T15:31:41.083Z,2.30
2023-02-26T15:35:36.226Z,3.20
2023-02-26T15:39:36.076Z,1.70
2023-02-26T15:43:36.545Z,2.40
2023-02-26T15:47:36.192Z,2.90
2023-02-26T15:51:36.908Z,4.70
2023-02-26T15:55:39.891Z,2.50
2023-02-26T15:59:42.368Z,3.10
2023-02-26T16:03:37.727Z,4.40
2023-02-26T16:07:36.333Z,3.90
2023-02-26T16:11:40.424Z,7.30
2023-02-26T16:15:39.153Z,2.40
2023-02-26T16:19:40.557Z,1.90
2023-02-26T16:23:42.994Z,3.60
2023-02-26T16:27:36.378Z,3.40
2023-02-26T16:31:37.094Z,3.20
2023-02-26T16:35:38.554Z,2.60
2023-02-26T16:39:43.076Z,3.50
2023-02-26T16:41:34.048Z,3.50
2023-02-26T16:43:50.015Z,2.30
2023-02-26T16:47:39.343Z,2.40
2023-02-26T16:51:39.997Z,4.30
2023-02-26T16:55:39.284Z,2.80
2023-02-26T16:56:15.866Z,2.80
2023-02-26T16:59:37.831Z,3.70
2023-02-26T17:03:37.663Z,3.40
2023-02-26T17:11:38.853Z,2.40
2023-02-26T17:15:38.160Z,5.00
2023-02-26T17:19:38.209Z,6.60
2023-02-26T17:23:37.907Z,4.90
2023-02-26T17:27:36.904Z,5.00
2023-02-26T17:31:42.476Z,4.90
2023-02-26T17:35:36.745Z,3.60
2023-02-26T17:39:36.425Z,3.80
2023-02-26T17:43:36.498Z,4.10
2023-02-26T17:47:36.450Z,4.40
2023-02-26T17:51:36.641Z,4.40
2023-02-26T17:52:07.213Z,4.40
2023-02-26T17:55:38.406Z,4.00
2023-02-26T17:59:36.710Z,3.20
2023-02-26T18:03:38.831Z,3.00
2023-02-26T18:07:37.422Z,4.10
2023-02-26T18:11:37.675Z,3.10
2023-02-26T18:15:37.064Z,3.90
2023-02-26T18:19:36.519Z,6.60
2023-02-26T18:23:36.961Z,6.90
2023-02-26T18:27:36.573Z,5.90
2023-02-26T18:31:37.211Z,3.20
2023-02-26T18:35:38.578Z,7.80
2023-02-26T18:39:37.171Z,4.40
2023-02-26T18:43:36.598Z,3.80
2023-02-26T18:47:37.204Z,4.10
2023-02-26T18:51:36.614Z,3.00
2023-02-26T18:55:37.383Z,7.80
2023-02-26T18:59:36.757Z,12.00
2023-02-26T19:03:36.682Z,4.40
2023-02-26T19:07:37.239Z,6.30
2023-02-26T19:11:37.125Z,10.80
2023-02-26T19:15:36.782Z,8.00
2023-02-26T19:19:39.554Z,4.50
2023-02-26T19:23:36.672Z,5.20
2023-02-26T19:27:37.806Z,6.80
2023-02-26T19:31:36.873Z,3.30
2023-02-26T19:39:37.583Z,4.20
2023-02-26T19:43:36.818Z,5.90
2023-02-26T19:47:37.116Z,4.60
2023-02-26T19:51:37.871Z,6.90
2023-02-26T19:55:36.897Z,6.00
2023-02-26T19:59:36.870Z,4.70
2023-02-26T20:03:37.035Z,3.60
2023-02-26T20:07:36.812Z,6.00
2023-02-26T20:11:38.160Z,5.10
2023-02-26T20:15:36.913Z,5.20
2023-02-26T20:19:37.143Z,7.10
2023-02-26T20:23:38.722Z,5.60
2023-02-26T20:27:37.973Z,5.20
2023-02-26T20:31:37.082Z,6.90
2023-02-26T20:35:37.068Z,8.20
2023-02-26T20:39:36.970Z,5.30
2023-02-26T20:43:37.386Z,6.10
2023-02-26T20:47:37.098Z,6.70
2023-02-26T20:51:38.016Z,9.30
2023-02-26T20:55:38.025Z,7.60
2023-02-26T20:59:37.059Z,4.30
2023-02-26T21:03:37.087Z,5.20
2023-02-26T21:07:38.500Z,5.40
2023-02-26T21:11:38.050Z,7.50
2023-02-26T21:15:37.323Z,6.50
2023-02-26T21:19:37.141Z,9.20
2023-02-26T21:23:38.299Z,6.70
2023-02-26T21:27:37.445Z,5.00
2023-02-26T21:31:37.546Z,5.10
2023-02-26T21:35:37.086Z,5.50
2023-02-26T21:39:38.211Z,9.60
2023-02-26T21:43:38.197Z,6.50
2023-02-26T21:47:37.677Z,7.70
2023-02-26T21:51:37.387Z,8.00
2023-02-26T21:55:37.287Z,5.90
2023-02-26T21:59:37.125Z,10.30
2023-02-26T22:03:37.621Z,6.70
2023-02-26T22:07:37.740Z,9.20
2023-02-26T22:11:37.346Z,9.80
2023-02-26T22:15:37.259Z,4.60
2023-02-26T22:19:37.352Z,5.50
2023-02-26T22:23:37.202Z,6.80
2023-02-26T22:27:37.865Z,5.10
2023-02-26T22:31:37.187Z,7.20
2023-02-26T22:35:37.366Z,6.50
2023-02-26T22:39:37.221Z,4.10
2023-02-26T22:43:37.402Z,5.40
2023-02-26T22:47:37.348Z,7.00
2023-02-26T22:51:37.766Z,10.50
2023-02-26T22:55:37.278Z,6.30
2023-02-26T22:59:37.380Z,5.20
2023-02-26T23:03:37.330Z,7.90
2023-02-26T23:07:38.443Z,6.50
2023-02-26T23:11:37.390Z,5.70
2023-02-26T23:15:37.388Z,5.60
2023-02-26T23:19:37.389Z,7.10
2023-02-26T23:23:37.631Z,5.90
2023-02-26T23:27:37.791Z,8.40
2023-02-26T23:31:37.879Z,6.60
2023-02-26T23:35:37.521Z,6.80
2023-02-26T23:39:37.569Z,5.80
2023-02-26T23:43:37.418Z,6.20
2023-02-26T23:47:38.371Z,5.60
2023-02-26T23:51:37.534Z,6.80
2023-02-26T23:55:37.697Z,5.10
2023-02-26T23:59:37.473Z,9.10
